CA-0222 weather

CLOSED Marilla Airport
British Columbia, Canada

Public forecast

Using degrees Celsius for public forecast. Weather courtesy of forecast.io.

METAR (pilot weather report)

Report is more than 6 hours old.

Closest report is Bella Coola Airport, 82.4 nm (152.7 km) SSW. Retrieved 2019/08/20 01:00 UTC (8 hours ago):

CYBD 200100Z 28011G18KT 15SM BKN096 18/10 A2991 RMK AC7 LAST STFD OBS/NEXT 201300 UTC SLP129 DENSITY ALT 500FT

TAF (pilot weather forecast)

Forecast is more than 6 hours old.

Closest forecast is Smithers Airport, 85.5 nm (158.3 km) NW. Retrieved 2019/08/20 01:00 UTC (8 hours ago):

TAF CYYD 200038Z 2001/2006 VRB03KT P6SM SCT050 BKN150 TEMPO 2001/2003 3SM -RA BR SCT015 BKN050 FM200300 16006KT P6SM -RA SCT012 OVC025 TEMPO 2003/2006 2SM -RA BR SCT008 OVC012 RMK NXT FCST WILL BE ISSUED AT 201345Z